sensor_id;sensor_type;location;lat;lon;timestamp;P1;durP1;ratioP1;P2;durP2;ratioP2
72161;SDS011;60047;51.644;5.842;2022-09-27T00:01:55;1.9;;;1.0;;
72161;SDS011;60047;51.644;5.842;2022-09-27T00:06:55;1.8;;;1.2;;
72161;SDS011;60047;51.644;5.842;2022-09-27T00:11:55;2.5;;;0.9;;
72161;SDS011;60047;51.644;5.842;2022-09-27T00:16:55;2.5;;;1.1;;
72161;SDS011;60047;51.644;5.842;2022-09-27T00:21:55;2.5;;;1.4;;
72161;SDS011;60047;51.644;5.842;2022-09-27T00:26:55;2.0;;;0.9;;
72161;SDS011;60047;51.644;5.842;2022-09-27T00:31:55;2.1;;;1.0;;
72161;SDS011;60047;51.644;5.842;2022-09-27T00:36:55;1.5;;;0.8;;
72161;SDS011;60047;51.644;5.842;2022-09-27T00:41:55;1.3;;;0.7;;
72161;SDS011;60047;51.644;5.842;2022-09-27T00:46:59;1.9;;;0.9;;
72161;SDS011;60047;51.644;5.842;2022-09-27T00:51:58;1.8;;;0.8;;
72161;SDS011;60047;51.644;5.842;2022-09-27T00:56:55;2.0;;;0.9;;
72161;SDS011;60047;51.644;5.842;2022-09-27T01:01:56;1.2;;;0.8;;
72161;SDS011;60047;51.644;5.842;2022-09-27T01:06:55;1.4;;;0.7;;
72161;SDS011;60047;51.644;5.842;2022-09-27T01:12:14;2.9;;;0.8;;
72161;SDS011;60047;51.644;5.842;2022-09-27T01:17:15;1.6;;;0.7;;
72161;SDS011;60047;51.644;5.842;2022-09-27T01:22:46;1.8;;;0.8;;
72161;SDS011;60047;51.644;5.842;2022-09-27T01:29:29;2.0;;;0.9;;
72161;SDS011;60047;51.644;5.842;2022-09-27T01:32:34;1.5;;;0.8;;
72161;SDS011;60047;51.644;5.842;2022-09-27T01:37:05;1.7;;;0.8;;
72161;SDS011;60047;51.644;5.842;2022-09-27T01:42:07;1.5;;;0.7;;
72161;SDS011;60047;51.644;5.842;2022-09-27T01:47:00;1.6;;;0.7;;
72161;SDS011;60047;51.644;5.842;2022-09-27T01:52:04;1.3;;;0.6;;
72161;SDS011;60047;51.644;5.842;2022-09-27T01:56:57;3.2;;;0.7;;
72161;SDS011;60047;51.644;5.842;2022-09-27T02:02:02;1.2;;;0.8;;
72161;SDS011;60047;51.644;5.842;2022-09-27T02:06:56;1.9;;;0.8;;
72161;SDS011;60047;51.644;5.842;2022-09-27T02:11:57;3.1;;;0.7;;
72161;SDS011;60047;51.644;5.842;2022-09-27T02:16:57;2.0;;;0.8;;
72161;SDS011;60047;51.644;5.842;2022-09-27T02:22:23;1.3;;;0.8;;
72161;SDS011;60047;51.644;5.842;2022-09-27T02:26:57;2.1;;;0.8;;
72161;SDS011;60047;51.644;5.842;2022-09-27T02:31:56;2.6;;;0.9;;
72161;SDS011;60047;51.644;5.842;2022-09-27T02:36:56;1.5;;;0.6;;
72161;SDS011;60047;51.644;5.842;2022-09-27T02:41:56;2.0;;;0.6;;
72161;SDS011;60047;51.644;5.842;2022-09-27T02:47:22;0.9;;;0.6;;
72161;SDS011;60047;51.644;5.842;2022-09-27T02:52:48;1.3;;;0.6;;
72161;SDS011;60047;51.644;5.842;2022-09-27T02:57:55;1.8;;;0.6;;
72161;SDS011;60047;51.644;5.842;2022-09-27T03:02:31;1.5;;;0.6;;
72161;SDS011;60047;51.644;5.842;2022-09-27T03:06:56;1.3;;;0.8;;
72161;SDS011;60047;51.644;5.842;2022-09-27T03:11:56;1.2;;;0.6;;
72161;SDS011;60047;51.644;5.842;2022-09-27T03:16:56;1.3;;;0.5;;
72161;SDS011;60047;51.644;5.842;2022-09-27T03:21:56;3.0;;;0.7;;
72161;SDS011;60047;51.644;5.842;2022-09-27T03:26:56;2.1;;;0.6;;
72161;SDS011;60047;51.644;5.842;2022-09-27T03:31:56;1.3;;;0.7;;
72161;SDS011;60047;51.644;5.842;2022-09-27T03:36:56;1.9;;;0.6;;
72161;SDS011;60047;51.644;5.842;2022-09-27T03:41:56;2.5;;;0.7;;
72161;SDS011;60047;51.644;5.842;2022-09-27T03:46:56;1.1;;;0.5;;
72161;SDS011;60047;51.644;5.842;2022-09-27T03:51:56;2.1;;;0.7;;
72161;SDS011;60047;51.644;5.842;2022-09-27T03:56:56;1.2;;;0.6;;
72161;SDS011;60047;51.644;5.842;2022-09-27T04:01:56;1.3;;;0.5;;
72161;SDS011;60047;51.644;5.842;2022-09-27T04:06:56;1.4;;;0.6;;
72161;SDS011;60047;51.644;5.842;2022-09-27T04:11:56;1.4;;;0.6;;
72161;SDS011;60047;51.644;5.842;2022-09-27T04:16:56;1.7;;;0.6;;
72161;SDS011;60047;51.644;5.842;2022-09-27T04:21:56;2.6;;;0.7;;
72161;SDS011;60047;51.644;5.842;2022-09-27T04:26:56;1.6;;;0.5;;
72161;SDS011;60047;51.644;5.842;2022-09-27T04:31:56;1.6;;;0.6;;
72161;SDS011;60047;51.644;5.842;2022-09-27T04:36:56;1.4;;;0.6;;
72161;SDS011;60047;51.644;5.842;2022-09-27T04:41:56;1.7;;;0.6;;
72161;SDS011;60047;51.644;5.842;2022-09-27T04:46:56;1.4;;;0.5;;
72161;SDS011;60047;51.644;5.842;2022-09-27T04:51:56;1.0;;;0.5;;
72161;SDS011;60047;51.644;5.842;2022-09-27T04:56:56;0.9;;;0.6;;
72161;SDS011;60047;51.644;5.842;2022-09-27T05:01:56;2.0;;;0.7;;
72161;SDS011;60047;51.644;5.842;2022-09-27T05:06:56;1.2;;;0.5;;
72161;SDS011;60047;51.644;5.842;2022-09-27T05:11:56;1.6;;;0.6;;
72161;SDS011;60047;51.644;5.842;2022-09-27T05:16:56;0.8;;;0.3;;
72161;SDS011;60047;51.644;5.842;2022-09-27T05:21:56;1.4;;;0.5;;
72161;SDS011;60047;51.644;5.842;2022-09-27T05:26:56;2.1;;;0.6;;
72161;SDS011;60047;51.644;5.842;2022-09-27T05:31:56;1.6;;;0.5;;
72161;SDS011;60047;51.644;5.842;2022-09-27T05:36:56;1.8;;;0.5;;
72161;SDS011;60047;51.644;5.842;2022-09-27T05:41:56;1.1;;;0.4;;
72161;SDS011;60047;51.644;5.842;2022-09-27T05:46:56;1.7;;;0.5;;
72161;SDS011;60047;51.644;5.842;2022-09-27T05:51:56;1.7;;;0.6;;
72161;SDS011;60047;51.644;5.842;2022-09-27T05:56:56;1.5;;;0.4;;
72161;SDS011;60047;51.644;5.842;2022-09-27T06:01:56;2.4;;;0.5;;
72161;SDS011;60047;51.644;5.842;2022-09-27T06:06:56;0.9;;;0.4;;
72161;SDS011;60047;51.644;5.842;2022-09-27T06:11:56;1.1;;;0.4;;
72161;SDS011;60047;51.644;5.842;2022-09-27T06:16:56;1.5;;;0.4;;
72161;SDS011;60047;51.644;5.842;2022-09-27T06:21:56;1.3;;;0.5;;
72161;SDS011;60047;51.644;5.842;2022-09-27T06:26:56;2.0;;;0.6;;
72161;SDS011;60047;51.644;5.842;2022-09-27T06:31:56;2.2;;;0.4;;
72161;SDS011;60047;51.644;5.842;2022-09-27T06:36:56;0.8;;;0.4;;
72161;SDS011;60047;51.644;5.842;2022-09-27T06:41:56;3.0;;;0.6;;
72161;SDS011;60047;51.644;5.842;2022-09-27T06:46:56;0.9;;;0.5;;
72161;SDS011;60047;51.644;5.842;2022-09-27T06:51:56;1.4;;;0.5;;
72161;SDS011;60047;51.644;5.842;2022-09-27T06:56:56;2.0;;;0.5;;
72161;SDS011;60047;51.644;5.842;2022-09-27T07:01:56;1.2;;;0.4;;
72161;SDS011;60047;51.644;5.842;2022-09-27T07:06:57;1.5;;;0.4;;
72161;SDS011;60047;51.644;5.842;2022-09-27T07:11:56;2.0;;;0.5;;
72161;SDS011;60047;51.644;5.842;2022-09-27T07:16:56;2.4;;;0.7;;
72161;SDS011;60047;51.644;5.842;2022-09-27T07:21:56;0.8;;;0.3;;
72161;SDS011;60047;51.644;5.842;2022-09-27T07:26:57;1.2;;;0.5;;
72161;SDS011;60047;51.644;5.842;2022-09-27T07:31:57;3.2;;;0.5;;
72161;SDS011;60047;51.644;5.842;2022-09-27T07:36:57;2.4;;;0.4;;
72161;SDS011;60047;51.644;5.842;2022-09-27T07:41:57;1.6;;;0.4;;
72161;SDS011;60047;51.644;5.842;2022-09-27T07:46:57;1.0;;;0.4;;
72161;SDS011;60047;51.644;5.842;2022-09-27T07:51:57;1.3;;;0.5;;
72161;SDS011;60047;51.644;5.842;2022-09-27T07:56:57;1.2;;;0.5;;
72161;SDS011;60047;51.644;5.842;2022-09-27T08:01:57;1.8;;;0.5;;
72161;SDS011;60047;51.644;5.842;2022-09-27T08:06:57;2.6;;;0.4;;
72161;SDS011;60047;51.644;5.842;2022-09-27T08:11:57;2.9;;;0.7;;
72161;SDS011;60047;51.644;5.842;2022-09-27T08:16:57;0.8;;;0.3;;
72161;SDS011;60047;51.644;5.842;2022-09-27T08:21:57;2.7;;;0.4;;
72161;SDS011;60047;51.644;5.842;2022-09-27T08:26:57;0.8;;;0.4;;
72161;SDS011;60047;51.644;5.842;2022-09-27T08:31:57;2.1;;;0.4;;
72161;SDS011;60047;51.644;5.842;2022-09-27T08:36:57;1.3;;;0.3;;
72161;SDS011;60047;51.644;5.842;2022-09-27T08:42:05;0.9;;;0.4;;
72161;SDS011;60047;51.644;5.842;2022-09-27T08:47:05;1.0;;;0.3;;
72161;SDS011;60047;51.644;5.842;2022-09-27T08:51:57;1.3;;;0.4;;
72161;SDS011;60047;51.644;5.842;2022-09-27T08:56:57;0.7;;;0.4;;
72161;SDS011;60047;51.644;5.842;2022-09-27T09:01:57;1.7;;;0.5;;
72161;SDS011;60047;51.644;5.842;2022-09-27T09:06:57;1.7;;;0.4;;
72161;SDS011;60047;51.644;5.842;2022-09-27T09:12:25;1.0;;;0.4;;
72161;SDS011;60047;51.644;5.842;2022-09-27T09:18:42;1.3;;;0.4;;
72161;SDS011;60047;51.644;5.842;2022-09-27T09:24:32;0.7;;;0.4;;
72161;SDS011;60047;51.644;5.842;2022-09-27T09:30:19;1.2;;;0.5;;
72161;SDS011;60047;51.644;5.842;2022-09-27T09:34:14;2.2;;;0.4;;
72161;SDS011;60047;51.644;5.842;2022-09-27T09:37:39;1.4;;;0.3;;
72161;SDS011;60047;51.644;5.842;2022-09-27T09:41:58;1.6;;;0.4;;
72161;SDS011;60047;51.644;5.842;2022-09-27T09:46:57;0.5;;;0.3;;
72161;SDS011;60047;51.644;5.842;2022-09-27T09:51:58;1.6;;;0.5;;
72161;SDS011;60047;51.644;5.842;2022-09-27T09:56:58;1.5;;;0.5;;
72161;SDS011;60047;51.644;5.842;2022-09-27T10:02:22;3.2;;;0.7;;
72161;SDS011;60047;51.644;5.842;2022-09-27T10:06:57;1.2;;;0.5;;
72161;SDS011;60047;51.644;5.842;2022-09-27T10:11:57;1.4;;;0.4;;
72161;SDS011;60047;51.644;5.842;2022-09-27T10:17:04;1.0;;;0.5;;
72161;SDS011;60047;51.644;5.842;2022-09-27T10:21:58;1.3;;;0.6;;
72161;SDS011;60047;51.644;5.842;2022-09-27T10:26:58;1.7;;;0.5;;
72161;SDS011;60047;51.644;5.842;2022-09-27T10:31:57;1.4;;;0.5;;
72161;SDS011;60047;51.644;5.842;2022-09-27T10:37:01;1.0;;;0.4;;
72161;SDS011;60047;51.644;5.842;2022-09-27T10:41:57;1.3;;;0.5;;
72161;SDS011;60047;51.644;5.842;2022-09-27T10:47:00;1.3;;;0.6;;
72161;SDS011;60047;51.644;5.842;2022-09-27T10:51:58;2.1;;;0.6;;
72161;SDS011;60047;51.644;5.842;2022-09-27T10:56:58;1.1;;;0.7;;
72161;SDS011;60047;51.644;5.842;2022-09-27T11:01:57;0.9;;;0.6;;
72161;SDS011;60047;51.644;5.842;2022-09-27T11:07:10;1.5;;;0.6;;
72161;SDS011;60047;51.644;5.842;2022-09-27T11:12:07;1.0;;;0.5;;
72161;SDS011;60047;51.644;5.842;2022-09-27T11:17:09;1.4;;;0.8;;
72161;SDS011;60047;51.644;5.842;2022-09-27T11:22:17;1.3;;;0.7;;
72161;SDS011;60047;51.644;5.842;2022-09-27T11:28:11;0.9;;;0.6;;
72161;SDS011;60047;51.644;5.842;2022-09-27T11:32:58;1.3;;;0.7;;
72161;SDS011;60047;51.644;5.842;2022-09-27T11:38:34;1.1;;;0.7;;
72161;SDS011;60047;51.644;5.842;2022-09-27T11:43:53;2.4;;;0.7;;
72161;SDS011;60047;51.644;5.842;2022-09-27T11:47:44;1.1;;;0.6;;
72161;SDS011;60047;51.644;5.842;2022-09-27T11:53:34;0.8;;;0.6;;
72161;SDS011;60047;51.644;5.842;2022-09-27T11:58:55;2.0;;;0.6;;
72161;SDS011;60047;51.644;5.842;2022-09-27T12:04:31;1.5;;;0.6;;
72161;SDS011;60047;51.644;5.842;2022-09-27T12:09:06;2.0;;;0.8;;
72161;SDS011;60047;51.644;5.842;2022-09-27T12:12:02;1.9;;;0.6;;
72161;SDS011;60047;51.644;5.842;2022-09-27T12:16:57;2.3;;;0.7;;
72161;SDS011;60047;51.644;5.842;2022-09-27T12:22:01;1.3;;;0.6;;
72161;SDS011;60047;51.644;5.842;2022-09-27T12:27:06;2.5;;;0.6;;
72161;SDS011;60047;51.644;5.842;2022-09-27T12:31:58;1.8;;;0.6;;
72161;SDS011;60047;51.644;5.842;2022-09-27T12:37:00;0.7;;;0.6;;
72161;SDS011;60047;51.644;5.842;2022-09-27T12:42:04;4.8;;;0.8;;
72161;SDS011;60047;51.644;5.842;2022-09-27T12:47:29;2.0;;;0.6;;
72161;SDS011;60047;51.644;5.842;2022-09-27T12:51:59;1.0;;;0.5;;
72161;SDS011;60047;51.644;5.842;2022-09-27T12:58:28;1.7;;;0.6;;
72161;SDS011;60047;51.644;5.842;2022-09-27T13:03:52;0.8;;;0.6;;
72161;SDS011;60047;51.644;5.842;2022-09-27T13:10:04;1.7;;;0.6;;
72161;SDS011;60047;51.644;5.842;2022-09-27T13:13:02;1.1;;;0.6;;
72161;SDS011;60047;51.644;5.842;2022-09-27T13:16:57;0.8;;;0.6;;
72161;SDS011;60047;51.644;5.842;2022-09-27T13:21:57;2.1;;;0.7;;
72161;SDS011;60047;51.644;5.842;2022-09-27T13:26:58;1.2;;;0.6;;
72161;SDS011;60047;51.644;5.842;2022-09-27T13:32:22;2.0;;;0.8;;
72161;SDS011;60047;51.644;5.842;2022-09-27T13:36:57;1.8;;;0.7;;
72161;SDS011;60047;51.644;5.842;2022-09-27T13:42:20;0.6;;;0.4;;
72161;SDS011;60047;51.644;5.842;2022-09-27T13:46:59;1.1;;;0.7;;
72161;SDS011;60047;51.644;5.842;2022-09-27T13:52:03;1.5;;;0.5;;
72161;SDS011;60047;51.644;5.842;2022-09-27T13:56:58;1.5;;;0.5;;
72161;SDS011;60047;51.644;5.842;2022-09-27T14:02:17;1.3;;;0.5;;
72161;SDS011;60047;51.644;5.842;2022-09-27T14:06:58;1.6;;;0.8;;
72161;SDS011;60047;51.644;5.842;2022-09-27T14:12:00;1.3;;;0.6;;
72161;SDS011;60047;51.644;5.842;2022-09-27T14:16:58;1.3;;;0.7;;
72161;SDS011;60047;51.644;5.842;2022-09-27T14:21:58;1.4;;;0.7;;
72161;SDS011;60047;51.644;5.842;2022-09-27T14:27:10;1.6;;;0.5;;
72161;SDS011;60047;51.644;5.842;2022-09-27T14:32:11;1.9;;;0.8;;
72161;SDS011;60047;51.644;5.842;2022-09-27T14:36:58;3.9;;;0.8;;
72161;SDS011;60047;51.644;5.842;2022-09-27T14:41:58;1.0;;;0.6;;
72161;SDS011;60047;51.644;5.842;2022-09-27T14:47:19;1.7;;;0.6;;
72161;SDS011;60047;51.644;5.842;2022-09-27T14:51:58;2.4;;;0.7;;
72161;SDS011;60047;51.644;5.842;2022-09-27T14:56:58;1.1;;;0.6;;
72161;SDS011;60047;51.644;5.842;2022-09-27T15:01:58;1.7;;;0.6;;
72161;SDS011;60047;51.644;5.842;2022-09-27T15:06:58;1.2;;;0.7;;
72161;SDS011;60047;51.644;5.842;2022-09-27T15:11:58;1.4;;;0.5;;
72161;SDS011;60047;51.644;5.842;2022-09-27T15:16:58;1.4;;;0.7;;
72161;SDS011;60047;51.644;5.842;2022-09-27T15:22:20;1.2;;;0.7;;
72161;SDS011;60047;51.644;5.842;2022-09-27T15:26:58;1.5;;;0.8;;
72161;SDS011;60047;51.644;5.842;2022-09-27T15:31:58;2.0;;;0.8;;
72161;SDS011;60047;51.644;5.842;2022-09-27T15:42:06;1.7;;;0.9;;
72161;SDS011;60047;51.644;5.842;2022-09-27T15:46:58;2.0;;;0.9;;
72161;SDS011;60047;51.644;5.842;2022-09-27T15:51:58;1.7;;;1.0;;
72161;SDS011;60047;51.644;5.842;2022-09-27T15:56:59;2.2;;;1.2;;
72161;SDS011;60047;51.644;5.842;2022-09-27T16:01:58;2.0;;;1.0;;
72161;SDS011;60047;51.644;5.842;2022-09-27T16:06:59;2.6;;;0.9;;
72161;SDS011;60047;51.644;5.842;2022-09-27T16:11:58;1.9;;;0.9;;
72161;SDS011;60047;51.644;5.842;2022-09-27T16:16:58;2.1;;;1.0;;
72161;SDS011;60047;51.644;5.842;2022-09-27T16:21:58;3.8;;;1.1;;
72161;SDS011;60047;51.644;5.842;2022-09-27T16:26:58;3.1;;;1.0;;
72161;SDS011;60047;51.644;5.842;2022-09-27T16:31:58;2.6;;;1.0;;
72161;SDS011;60047;51.644;5.842;2022-09-27T16:36:58;2.1;;;1.0;;
72161;SDS011;60047;51.644;5.842;2022-09-27T16:46:58;3.1;;;1.3;;
72161;SDS011;60047;51.644;5.842;2022-09-27T16:51:58;3.6;;;1.2;;
72161;SDS011;60047;51.644;5.842;2022-09-27T16:56:58;5.6;;;1.2;;
72161;SDS011;60047;51.644;5.842;2022-09-27T17:01:58;2.1;;;1.0;;
72161;SDS011;60047;51.644;5.842;2022-09-27T17:11:58;2.4;;;1.2;;
72161;SDS011;60047;51.644;5.842;2022-09-27T17:21:58;3.9;;;1.0;;
72161;SDS011;60047;51.644;5.842;2022-09-27T17:26:58;6.8;;;1.2;;
72161;SDS011;60047;51.644;5.842;2022-09-27T17:31:58;4.2;;;1.1;;
72161;SDS011;60047;51.644;5.842;2022-09-27T17:36:58;2.5;;;1.0;;
72161;SDS011;60047;51.644;5.842;2022-09-27T17:41:58;3.3;;;1.1;;
72161;SDS011;60047;51.644;5.842;2022-09-27T17:46:58;4.2;;;1.5;;
72161;SDS011;60047;51.644;5.842;2022-09-27T17:51:58;3.9;;;1.2;;
72161;SDS011;60047;51.644;5.842;2022-09-27T17:56:58;3.0;;;1.1;;
72161;SDS011;60047;51.644;5.842;2022-09-27T18:01:58;3.8;;;1.2;;
72161;SDS011;60047;51.644;5.842;2022-09-27T18:06:58;3.3;;;1.1;;
72161;SDS011;60047;51.644;5.842;2022-09-27T18:16:58;4.5;;;1.1;;
72161;SDS011;60047;51.644;5.842;2022-09-27T18:21:58;4.3;;;1.3;;
72161;SDS011;60047;51.644;5.842;2022-09-27T18:26:58;2.7;;;1.3;;
72161;SDS011;60047;51.644;5.842;2022-09-27T18:31:58;3.0;;;1.3;;
72161;SDS011;60047;51.644;5.842;2022-09-27T18:36:58;2.9;;;1.1;;
72161;SDS011;60047;51.644;5.842;2022-09-27T18:41:58;2.7;;;1.3;;
72161;SDS011;60047;51.644;5.842;2022-09-27T18:46:58;3.2;;;1.1;;
72161;SDS011;60047;51.644;5.842;2022-09-27T18:51:58;2.8;;;1.0;;
72161;SDS011;60047;51.644;5.842;2022-09-27T18:56:58;4.3;;;1.3;;
72161;SDS011;60047;51.644;5.842;2022-09-27T19:01:58;3.0;;;1.1;;
72161;SDS011;60047;51.644;5.842;2022-09-27T19:06:58;2.9;;;1.2;;
72161;SDS011;60047;51.644;5.842;2022-09-27T19:11:58;4.7;;;1.5;;
72161;SDS011;60047;51.644;5.842;2022-09-27T19:16:58;3.5;;;1.3;;
72161;SDS011;60047;51.644;5.842;2022-09-27T19:21:58;4.6;;;1.2;;
72161;SDS011;60047;51.644;5.842;2022-09-27T19:26:58;5.0;;;1.3;;
72161;SDS011;60047;51.644;5.842;2022-09-27T19:31:58;4.3;;;1.4;;
72161;SDS011;60047;51.644;5.842;2022-09-27T19:41:58;2.9;;;1.0;;
72161;SDS011;60047;51.644;5.842;2022-09-27T19:46:58;5.4;;;1.3;;
72161;SDS011;60047;51.644;5.842;2022-09-27T19:51:59;4.9;;;1.4;;
72161;SDS011;60047;51.644;5.842;2022-09-27T19:56:58;4.3;;;1.2;;
72161;SDS011;60047;51.644;5.842;2022-09-27T20:01:58;4.0;;;1.2;;
72161;SDS011;60047;51.644;5.842;2022-09-27T20:06:58;2.5;;;1.2;;
72161;SDS011;60047;51.644;5.842;2022-09-27T20:11:58;3.6;;;1.0;;
72161;SDS011;60047;51.644;5.842;2022-09-27T20:16:58;5.3;;;1.3;;
72161;SDS011;60047;51.644;5.842;2022-09-27T20:21:59;2.3;;;0.9;;
72161;SDS011;60047;51.644;5.842;2022-09-27T20:26:58;3.0;;;1.0;;
72161;SDS011;60047;51.644;5.842;2022-09-27T20:31:58;2.8;;;1.4;;
72161;SDS011;60047;51.644;5.842;2022-09-27T20:36:58;3.1;;;1.1;;
72161;SDS011;60047;51.644;5.842;2022-09-27T20:41:58;2.6;;;1.1;;
72161;SDS011;60047;51.644;5.842;2022-09-27T20:46:58;2.4;;;0.8;;
72161;SDS011;60047;51.644;5.842;2022-09-27T20:51:59;3.3;;;1.2;;
72161;SDS011;60047;51.644;5.842;2022-09-27T20:56:59;2.5;;;1.1;;
72161;SDS011;60047;51.644;5.842;2022-09-27T21:01:59;3.6;;;1.2;;
72161;SDS011;60047;51.644;5.842;2022-09-27T21:06:59;4.3;;;1.4;;
72161;SDS011;60047;51.644;5.842;2022-09-27T21:11:59;2.6;;;1.1;;
72161;SDS011;60047;51.644;5.842;2022-09-27T21:16:59;2.2;;;1.0;;
72161;SDS011;60047;51.644;5.842;2022-09-27T21:21:59;2.6;;;1.0;;
72161;SDS011;60047;51.644;5.842;2022-09-27T21:26:59;3.0;;;1.1;;
72161;SDS011;60047;51.644;5.842;2022-09-27T21:31:59;3.7;;;1.3;;
72161;SDS011;60047;51.644;5.842;2022-09-27T21:36:59;2.8;;;1.0;;
72161;SDS011;60047;51.644;5.842;2022-09-27T21:41:59;3.8;;;1.2;;
72161;SDS011;60047;51.644;5.842;2022-09-27T21:46:59;2.9;;;0.9;;
72161;SDS011;60047;51.644;5.842;2022-09-27T21:51:59;3.9;;;1.5;;
72161;SDS011;60047;51.644;5.842;2022-09-27T21:56:59;4.3;;;1.1;;
72161;SDS011;60047;51.644;5.842;2022-09-27T22:01:59;3.6;;;1.1;;
72161;SDS011;60047;51.644;5.842;2022-09-27T22:06:59;3.9;;;1.2;;
72161;SDS011;60047;51.644;5.842;2022-09-27T22:11:59;1.8;;;0.9;;
72161;SDS011;60047;51.644;5.842;2022-09-27T22:16:59;2.3;;;1.0;;
72161;SDS011;60047;51.644;5.842;2022-09-27T22:21:59;2.5;;;0.9;;
72161;SDS011;60047;51.644;5.842;2022-09-27T22:26:59;2.5;;;1.1;;
72161;SDS011;60047;51.644;5.842;2022-09-27T22:31:59;2.4;;;1.0;;
72161;SDS011;60047;51.644;5.842;2022-09-27T22:36:59;3.3;;;1.2;;
72161;SDS011;60047;51.644;5.842;2022-09-27T22:41:59;2.3;;;1.0;;
72161;SDS011;60047;51.644;5.842;2022-09-27T22:46:59;2.2;;;1.0;;
72161;SDS011;60047;51.644;5.842;2022-09-27T22:51:59;5.7;;;1.2;;
72161;SDS011;60047;51.644;5.842;2022-09-27T22:56:59;2.8;;;0.9;;
72161;SDS011;60047;51.644;5.842;2022-09-27T23:01:59;2.0;;;0.9;;
72161;SDS011;60047;51.644;5.842;2022-09-27T23:06:59;2.0;;;1.1;;
72161;SDS011;60047;51.644;5.842;2022-09-27T23:11:59;2.4;;;1.0;;
72161;SDS011;60047;51.644;5.842;2022-09-27T23:16:59;1.7;;;0.9;;
72161;SDS011;60047;51.644;5.842;2022-09-27T23:21:59;1.7;;;0.9;;
72161;SDS011;60047;51.644;5.842;2022-09-27T23:26:59;2.6;;;1.1;;
72161;SDS011;60047;51.644;5.842;2022-09-27T23:31:59;2.4;;;1.0;;
72161;SDS011;60047;51.644;5.842;2022-09-27T23:36:59;2.3;;;1.0;;
72161;SDS011;60047;51.644;5.842;2022-09-27T23:41:59;2.6;;;1.0;;
72161;SDS011;60047;51.644;5.842;2022-09-27T23:46:59;1.8;;;1.0;;
72161;SDS011;60047;51.644;5.842;2022-09-27T23:51:59;1.7;;;1.0;;
72161;SDS011;60047;51.644;5.842;2022-09-27T23:56:59;2.1;;;1.3;;
